• Join FlightAware (Why Join?)
  • Login
  • US Flag 
01:34PM EST


 

Airport Tracker/Info


-or-


 

Live Flight TrackerFlight Track Log ✈ UAL5942 ✈ 01-May-2013 ✈ KORD - KSGF

Flight Track Log - Related Links

Times and Time Zones

All times are in EDT time to prevent confusion due to time zone crossing. See the UAL5942 flight status page for this flight to view local times or setup timezone preferences in your user account.

Time Position Orientation Groundspeed Altitude Reporting Facility
EDT Latitude Longitude Course Direction KTS MPH feet Rate Location/Type
06:07PM 41.9333 -87.9333 228° Southwest 175 201 2,900  Level Chicago TRACON
06:08PM 41.9000 -87.9833 228° Southwest 213 245 4,400 1,440 Climbing Chicago TRACON
06:09PM 41.8392 -88.0408 215° Southwest 231 266 5,900 1,800 Climbing Chicago Center
06:10PM 41.7728 -88.0625 194° South 246 283 8,400 2,280 Climbing Chicago Center
06:11PM 41.6897 -88.0892 193° South 256 295 10,700 1,920 Climbing Chicago Center
06:12PM 41.6158 -88.1128 193° South 273 314 12,400 1,740 Climbing Chicago Center
06:13PM 41.5400 -88.1381 194° South 283 326 14,300 1,500 Climbing Chicago Center
06:14PM 41.4617 -88.1647 194° South 297 342 15,500 1,020 Climbing Chicago Center
06:15PM 41.3589 -88.2011 195° South 325 374 16,500 900 Climbing Chicago Center
06:16PM 41.2675 -88.2414 198° South 350 403 17,400 720 Climbing Chicago Center
06:17PM 41.1714 -88.2864 199° South 364 419 18,100 780 Climbing Chicago Center
06:18PM 41.0731 -88.3308 199° South 374 430 19,100 960 Climbing Chicago Center
06:19PM 40.9503 -88.3844 198° South 387 445 20,200 1,020 Climbing Chicago Center
06:20PM 40.8472 -88.4314 199° South 393 452 21,300 960 Climbing Chicago Center
06:21PM 40.7417 -88.4783 199° South 400 460 22,300 960 Climbing Chicago Center
06:22PM 40.6364 -88.5258 199° South 403 464 23,300 960 Climbing Chicago Center
06:23PM 40.5314 -88.5750 200° South 404 465 24,300 1,020 Climbing Chicago Center
06:24PM 40.4472 -88.6964 228° Southwest 404 465 25,500 1,020 Climbing Chicago Center
06:25PM 40.3753 -88.8094 230° Southwest 402 463 26,500 1,020 Climbing Chicago Center
06:26PM 40.3031 -88.9231 230° Southwest 404 465 27,700 1,200 Climbing Chicago Center
06:27PM 40.2333 -89.0325 230° Southwest 392 451 29,100 1,380 Climbing Chicago Center
06:29PM 40.1653 -89.1381 230° Southwest 382 440 30,600 1,500 Climbing Chicago Center
06:29PM 40.0978 -89.2425 230° Southwest 375 432 32,000 1,500 Climbing Kansas City Center
06:30PM 40.0328 -89.3431 230° Southwest 366 421 33,400 840 Climbing Kansas City Center
06:32PM 39.9547 -89.4642 230° Southwest 365 420 34,000 240 Climbing Chicago Center
06:33PM 39.8842 -89.5722 230° Southwest 382 440 34,000  Level Chicago Center
06:33PM 39.8281 -89.6578 230° Southwest 391 450 34,000  Level Kansas City Center
06:35PM 39.7536 -89.7703 229° Southwest 403 464 34,000 -60 Level Kansas City Center
06:36PM 39.6764 -89.8892 230° Southwest 410 472 33,900 -480 Descending Kansas City Center
06:37PM 39.6044 -90.0000 230° Southwest 406 467 33,100 -1,260 Descending Kansas City Center
06:38PM 39.5178 -90.1314 229° Southwest 402 463 31,400 -1,500 Descending Kansas City Center
06:39PM 39.4444 -90.2422 229° Southwest 406 467 30,000 -720 Descending Kansas City Center
06:40PM 39.3689 -90.3547 229° Southwest 414 476 30,000  Level Kansas City Center
06:41PM 39.2936 -90.4692 230° Southwest 418 481 30,000  Level Kansas City Center
06:42PM 39.2175 -90.5833 229° Southwest 420 483 30,000  Level Kansas City Center
06:43PM 39.1247 -90.7200 229° Southwest 423 487 30,000  Level Kansas City Center
06:44PM 39.0500 -90.8319 229° Southwest 421 484 30,000  Level Kansas City Center
06:45PM 38.9731 -90.9456 229° Southwest 423 487 30,000  Level Kansas City Center
06:46PM 38.8958 -91.0589 229° Southwest 425 489 30,000  Level Kansas City Center
06:47PM 38.8194 -91.1722 229° Southwest 424 488 30,000  Level Kansas City Center
06:48PM 38.7272 -91.3064 229° Southwest 422 486 30,000 -60 Level Kansas City Center
06:49PM 38.6594 -91.4036 228° Southwest 421 484 29,900 -660 Descending Kansas City Center
06:50PM 38.5689 -91.5369 229° Southwest 415 478 28,700 -960 Descending Kansas City Center
06:51PM 38.4942 -91.6436 228° Southwest 406 467 28,000 -360 Descending Kansas City Center
06:52PM 38.4194 -91.7514 229° Southwest 404 465 28,000 -180 Level Kansas City Center
06:53PM 38.3414 -91.8606 228° Southwest 412 474 27,700 -600 Descending Kansas City Center
06:54PM 38.2628 -91.9733 228° Southwest 422 486 26,800 -1,020 Descending Kansas City Center
06:55PM 38.1717 -92.1028 228° Southwest 445 512 25,600 -1,260 Descending Kansas City Center
06:56PM 38.0886 -92.2197 228° Southwest 448 516 24,200 -1,380 Descending Kansas City Center
06:57PM 38.0067 -92.3339 228° Southwest 444 511 22,800 -1,320 Descending Kansas City Center
06:58PM 37.9311 -92.4419 228° Southwest 424 488 21,500 -1,440 Descending Kansas City Center
06:59PM 37.8397 -92.5686 228° Southwest 410 472 19,900 -1,740 Descending Kansas City Center
07:00PM 37.7619 -92.6764 228° Southwest 415 478 18,000 -2,280 Descending Kansas City Center
07:01PM 37.6956 -92.7942 235° Southwest 404 465 15,300 -2,640 Descending Kansas City Center
07:02PM 37.6344 -92.9014 234° Southwest 387 445 12,600 -2,280 Descending Kansas City Center
07:03PM 37.5783 -93.0011 235° Southwest 367 422 10,700 -1,500 Descending Kansas City Center
07:04PM 37.5303 -93.0861 235° Southwest 326 375 9,500 -1,500 Descending Kansas City Center
07:06PM 37.4853 -93.1644 234° Southwest 293 337 7,600 -1,800 Descending Kansas City Center
07:07PM 37.4336 -93.2572 235° Southwest 279 321 5,800 -1,380 Descending Kansas City Center
07:08PM 37.3928 -93.3286 234° Southwest 263 303 4,800 -1,080 Descending Kansas City Center
07:09PM 37.3519 -93.3986 234° Southwest 255 293 3,600 -1,020 Descending Kansas City Center
07:10PM 37.3150 -93.4558 231° Southwest 228 262 2,800 -540 Descending Kansas City Center
07:11PM 37.2850 -93.4278 143° Southeast 206 237 2,500 -300 Descending Kansas City Center
07:13PM 37.2457 -93.3886 219° Southwest  Level Estimated
07:20PM 37.2457 -93.3886 219° Southwest  Level Estimated
07:21PM 37.2457 -93.3886 219° Southwest  Level Estimated